Time;durP1;ratioP1;P1;durP2;ratioP2;P2;SDS_P1;SDS_P2;PMS_P1;PMS_P2;Temp;Humidity;BMP_temperature;BMP_pressure;BME280_temperature;BME280_humidity;BME280_pressure;Samples;Min_cycle;Max_cycle;Signal;HPM_P1;HPM_P2
2021/11/22 00:01:08;;;;;;;10.80;8.10;;;4.70;99.90;;;;;;5050773;28;20930;-82
2021/11/22 00:03:38;;;;;;;12.23;7.27;;;4.70;99.90;;;;;;5050776;28;20190;-83
2021/11/22 00:06:04;;;;;;;11.87;7.53;;;4.70;99.90;;;;;;5050744;28;20407;-82
2021/11/22 00:08:30;;;;;;;10.87;6.97;;;4.60;99.90;;;;;;5050627;28;20470;-83
2021/11/22 00:10:55;;;;;;;7.00;5.90;;;4.70;99.90;;;;;;5052190;28;20934;-83
2021/11/22 00:13:21;;;;;;;9.00;7.33;;;4.70;99.90;;;;;;5053934;28;20211;-83
2021/11/22 00:15:47;;;;;;;7.27;6.20;;;4.60;99.90;;;;;;5053205;28;20207;-82
2021/11/22 00:18:13;;;;;;;10.70;6.53;;;4.70;99.90;;;;;;5050171;28;20195;-83
2021/11/22 00:20:39;;;;;;;13.37;7.40;;;4.80;99.90;;;;;;5050361;28;20164;-83
2021/11/22 00:23:05;;;;;;;16.40;7.70;;;4.80;99.90;;;;;;5051758;28;20437;-83
2021/11/22 00:25:31;;;;;;;16.83;9.27;;;4.80;99.90;;;;;;5050658;28;20418;-82
2021/11/22 00:27:57;;;;;;;13.80;7.70;;;4.80;99.90;;;;;;5050455;28;20207;-83
2021/11/22 00:30:22;;;;;;;12.47;8.67;;;4.80;99.90;;;;;;5050284;28;20673;-83
2021/11/22 00:32:48;;;;;;;16.63;8.80;;;4.90;99.90;;;;;;5050417;28;20206;-83
2021/11/22 00:35:14;;;;;;;11.13;8.00;;;4.90;99.90;;;;;;5050610;28;20176;-82
2021/11/22 00:37:50;;;;;;;11.13;9.63;;;4.90;99.90;;;;;;5050160;28;20496;-83
2021/11/22 00:40:16;;;;;;;16.60;10.37;;;5.00;99.90;;;;;;5050347;28;20406;-83
2021/11/22 00:42:45;;;;;;;13.00;7.97;;;4.90;99.90;;;;;;5050198;28;21023;-83
2021/11/22 00:45:11;;;;;;;13.20;8.73;;;4.90;99.90;;;;;;5050244;28;20418;-83
2021/11/22 00:47:37;;;;;;;10.93;7.63;;;4.90;99.90;;;;;;5050156;28;20903;-82
2021/11/22 00:50:07;;;;;;;19.80;9.80;;;5.00;99.90;;;;;;5050260;28;20792;-83
2021/11/22 00:52:33;;;;;;;12.07;7.90;;;5.00;99.90;;;;;;5052072;28;20450;-83
2021/11/22 00:54:58;;;;;;;7.63;6.67;;;5.00;99.90;;;;;;5055581;28;20476;-83
2021/11/22 00:57:24;;;;;;;8.70;7.10;;;4.90;99.90;;;;;;5054823;28;20656;-83
2021/11/22 00:59:50;;;;;;;11.63;8.90;;;5.00;99.90;;;;;;5055154;28;20172;-83
2021/11/22 01:02:16;;;;;;;14.60;9.07;;;5.00;99.90;;;;;;5054961;28;20413;-83
2021/11/22 01:04:41;;;;;;;18.90;10.23;;;5.00;99.90;;;;;;5055073;28;20198;-83
2021/11/22 01:07:07;;;;;;;15.13;9.63;;;5.00;99.90;;;;;;5055321;28;20187;-83
2021/11/22 01:09:33;;;;;;;18.47;10.30;;;5.00;99.90;;;;;;5054138;28;20172;-83
2021/11/22 01:11:59;;;;;;;12.70;9.00;;;5.00;99.90;;;;;;5053990;28;20168;-83
2021/11/22 01:14:26;;;;;;;15.30;10.27;;;5.00;99.90;;;;;;5053599;28;20460;-83
2021/11/22 01:16:52;;;;;;;13.80;10.43;;;5.00;99.90;;;;;;5054113;28;20505;-82
2021/11/22 01:19:18;;;;;;;16.20;11.20;;;5.00;99.90;;;;;;5054602;28;20681;-83
2021/11/22 01:21:44;;;;;;;18.37;10.90;;;4.90;99.90;;;;;;5054319;28;20179;-83
2021/11/22 01:24:10;;;;;;;14.47;11.87;;;5.00;99.90;;;;;;5053768;28;20609;-83
2021/11/22 01:26:37;;;;;;;22.80;12.07;;;5.00;99.90;;;;;;5053652;28;20407;-83
2021/11/22 01:29:03;;;;;;;16.60;14.20;;;5.00;99.90;;;;;;5053759;28;20511;-84
2021/11/22 01:31:30;;;;;;;22.00;12.97;;;5.00;99.90;;;;;;5053718;28;20425;-84
2021/11/22 01:33:55;;;;;;;24.80;14.20;;;5.00;99.90;;;;;;5053376;28;20485;-84
2021/11/22 01:36:21;;;;;;;21.77;14.70;;;5.00;99.90;;;;;;5053846;28;21040;-83
2021/11/22 01:38:46;;;;;;;21.23;14.60;;;4.90;99.90;;;;;;5053335;28;20515;-84
2021/11/22 01:41:12;;;;;;;25.70;16.23;;;4.90;99.90;;;;;;5053441;28;20194;-84
2021/11/22 01:43:38;;;;;;;26.70;17.23;;;4.90;99.90;;;;;;5053471;28;20203;-84
2021/11/22 01:46:04;;;;;;;27.60;15.90;;;4.90;99.90;;;;;;5053303;28;20180;-84
2021/11/22 01:48:29;;;;;;;22.07;16.27;;;4.90;99.90;;;;;;5053022;28;20207;-84
2021/11/22 01:50:55;;;;;;;25.83;18.10;;;4.90;99.90;;;;;;5053337;28;20180;-83
2021/11/22 01:53:23;;;;;;;28.90;19.87;;;4.90;99.90;;;;;;5053135;28;20645;-84
2021/11/22 01:55:51;;;;;;;32.97;20.57;;;4.90;99.90;;;;;;5053260;28;20417;-84
2021/11/22 01:58:17;;;;;;;34.23;20.50;;;4.80;99.90;;;;;;5052756;28;20414;-84
2021/11/22 02:00:52;;;;;;;28.70;20.40;;;4.90;99.90;;;;;;5052973;28;20400;-84
2021/11/22 02:03:18;;;;;;;30.13;20.47;;;4.80;99.90;;;;;;5052808;28;20803;-84
2021/11/22 02:05:45;;;;;;;32.43;21.60;;;4.80;99.90;;;;;;5052748;28;20404;-84
2021/11/22 02:08:14;;;;;;;28.93;18.33;;;4.80;99.90;;;;;;5052786;28;20415;-84
2021/11/22 02:10:40;;;;;;;33.77;22.03;;;4.80;99.90;;;;;;5053048;28;20782;-84
2021/11/22 02:13:06;;;;;;;27.73;18.23;;;4.80;99.90;;;;;;5052840;28;20461;-84
2021/11/22 02:15:32;;;;;;;28.90;19.63;;;4.90;99.90;;;;;;5053166;28;20399;-85
2021/11/22 02:17:58;;;;;;;27.70;19.53;;;4.90;99.90;;;;;;5052555;28;20838;-84
2021/11/22 02:20:27;;;;;;;28.87;20.00;;;5.00;99.90;;;;;;5052845;28;20407;-84
2021/11/22 02:23:00;;;;;;;29.83;19.67;;;5.00;99.90;;;;;;5052814;28;20434;-84
2021/11/22 02:25:27;;;;;;;35.77;20.70;;;5.00;99.90;;;;;;5052782;28;20413;-84
2021/11/22 02:27:55;;;;;;;29.23;22.33;;;4.90;99.90;;;;;;5052316;28;20417;-83
2021/11/22 02:30:29;;;;;;;26.70;19.93;;;4.80;99.90;;;;;;5052559;28;20406;-84
2021/11/22 02:32:56;;;;;;;26.17;21.17;;;4.80;99.90;;;;;;5052446;28;20519;-84
2021/11/22 02:35:22;;;;;;;30.73;20.80;;;4.90;99.90;;;;;;5052465;28;20398;-84
2021/11/22 02:37:48;;;;;;;33.00;22.33;;;4.90;99.90;;;;;;5052168;28;20441;-84
2021/11/22 02:40:14;;;;;;;36.53;21.03;;;4.90;99.90;;;;;;5052324;28;20663;-84
2021/11/22 02:42:42;;;;;;;27.10;18.73;;;4.90;99.90;;;;;;5052275;28;20321;-84
2021/11/22 02:45:18;;;;;;;26.60;18.90;;;4.90;99.90;;;;;;5052359;28;20423;-83
2021/11/22 02:47:45;;;;;;;24.70;19.47;;;4.90;99.90;;;;;;5052028;28;20444;-83
2021/11/22 02:50:12;;;;;;;22.83;17.80;;;4.80;99.90;;;;;;5052348;28;20417;-84
2021/11/22 02:52:39;;;;;;;26.33;16.27;;;4.90;99.90;;;;;;5052007;28;20553;-84
2021/11/22 02:55:07;;;;;;;28.00;19.70;;;4.90;99.90;;;;;;5052039;28;20988;-84
2021/11/22 02:57:33;;;;;;;25.73;18.53;;;4.80;99.90;;;;;;5051701;28;20501;-84
2021/11/22 02:59:58;;;;;;;24.30;18.20;;;4.80;99.90;;;;;;5052159;28;20897;-84
2021/11/22 03:02:24;;;;;;;29.50;18.93;;;4.80;99.90;;;;;;5051961;28;20164;-84
2021/11/22 03:04:52;;;;;;;21.90;16.63;;;4.80;99.90;;;;;;5051968;28;20176;-84
2021/11/22 03:07:17;;;;;;;39.50;19.13;;;4.80;99.90;;;;;;5051676;28;20163;-84
2021/11/22 03:09:43;;;;;;;51.70;23.30;;;4.80;99.90;;;;;;5051790;28;20777;-84
2021/11/22 03:12:11;;;;;;;30.00;18.87;;;4.70;99.90;;;;;;5051709;28;20302;-84
2021/11/22 03:14:37;;;;;;;33.07;17.10;;;4.70;99.90;;;;;;5051679;28;20215;-84
2021/11/22 03:17:03;;;;;;;26.90;15.80;;;4.70;99.90;;;;;;5050784;28;20504;-84
2021/11/22 03:19:30;;;;;;;28.07;15.50;;;4.70;99.90;;;;;;5051349;28;20196;-84
2021/11/22 03:21:56;;;;;;;37.53;17.10;;;4.70;99.90;;;;;;5051553;28;20415;-84
2021/11/22 03:24:21;;;;;;;34.03;18.30;;;4.60;99.90;;;;;;5051455;28;20980;-84
2021/11/22 03:26:47;;;;;;;43.33;20.20;;;4.60;99.90;;;;;;5051378;28;20934;-84
2021/11/22 03:29:13;;;;;;;33.83;18.03;;;4.60;99.90;;;;;;5051320;28;20183;-83
2021/11/22 03:31:40;;;;;;;27.97;18.13;;;4.50;99.90;;;;;;5051324;28;20453;-84
2021/11/22 03:34:09;;;;;;;41.60;20.07;;;4.60;99.90;;;;;;5051330;28;20208;-84
2021/11/22 03:36:35;;;;;;;28.30;17.50;;;4.60;99.90;;;;;;5051276;28;20417;-84
2021/11/22 03:39:09;;;;;;;20.90;16.07;;;4.60;99.90;;;;;;5050959;28;20418;-84
2021/11/22 03:41:35;;;;;;;35.13;18.23;;;4.50;99.90;;;;;;5051211;28;20410;-84
2021/11/22 03:44:14;;;;;;;39.03;17.67;;;4.50;99.90;;;;;;5051170;28;20452;-84
2021/11/22 03:46:43;;;;;;;31.60;18.77;;;4.60;99.90;;;;;;5051309;28;20414;-84
2021/11/22 03:49:09;;;;;;;26.00;15.87;;;4.60;99.90;;;;;;5050916;28;20457;-85
2021/11/22 03:51:35;;;;;;;33.87;16.33;;;4.50;99.90;;;;;;5051092;28;20441;-84
2021/11/22 03:54:00;;;;;;;24.33;15.50;;;4.50;99.90;;;;;;5050809;28;20462;-84
2021/11/22 03:56:26;;;;;;;21.33;12.53;;;4.70;99.90;;;;;;5051059;28;20406;-84
2021/11/22 03:58:52;;;;;;;28.93;14.87;;;4.70;99.90;;;;;;5051916;28;20156;-84
2021/11/22 04:01:17;;;;;;;25.57;15.63;;;4.60;99.90;;;;;;5051058;28;20569;-84
2021/11/22 04:03:44;;;;;;;45.93;16.33;;;4.60;99.90;;;;;;5050645;28;20282;-85
2021/11/22 04:06:10;;;;;;;26.27;15.60;;;4.60;99.90;;;;;;5050842;28;20676;-84
2021/11/22 04:08:36;;;;;;;30.73;19.03;;;4.70;99.90;;;;;;5050809;28;20410;-84
2021/11/22 04:11:02;;;;;;;35.13;19.30;;;4.70;99.90;;;;;;5050985;28;21002;-84
2021/11/22 04:13:28;;;;;;;33.83;17.03;;;4.70;99.90;;;;;;5050820;28;20465;-84
2021/11/22 04:15:53;;;;;;;28.90;16.50;;;4.60;99.90;;;;;;5051082;28;20781;-84
2021/11/22 04:18:19;;;;;;;45.47;20.60;;;4.60;99.90;;;;;;5050416;28;20234;-84
2021/11/22 04:20:45;;;;;;;44.10;17.90;;;4.50;99.90;;;;;;5050753;28;20241;-84
2021/11/22 04:23:11;;;;;;;40.53;18.57;;;4.60;99.90;;;;;;5050559;28;20196;-84
2021/11/22 04:25:38;;;;;;;22.40;14.47;;;4.50;99.90;;;;;;5050704;28;20168;-84
2021/11/22 04:28:05;;;;;;;22.37;15.53;;;4.60;99.90;;;;;;5055240;28;20493;-83
2021/11/22 04:30:31;;;;;;;34.43;16.90;;;4.60;99.90;;;;;;5057329;28;20407;-84
2021/11/22 04:32:58;;;;;;;18.93;14.73;;;4.50;99.90;;;;;;5057013;28;20464;-84
2021/11/22 04:35:23;;;;;;;23.17;15.00;;;4.60;99.90;;;;;;5057137;28;20906;-84
2021/11/22 04:37:49;;;;;;;37.23;14.60;;;4.60;99.90;;;;;;5056984;28;20410;-84
2021/11/22 04:40:18;;;;;;;44.30;15.57;;;4.60;99.90;;;;;;5057276;28;20167;-84
2021/11/22 04:42:46;;;;;;;37.57;16.10;;;4.60;99.90;;;;;;5057115;28;20541;-84
2021/11/22 04:45:12;;;;;;;27.37;14.53;;;4.60;99.90;;;;;;5057113;28;20418;-84
2021/11/22 04:47:37;;;;;;;23.53;15.27;;;4.60;99.90;;;;;;5056832;28;20453;-84
2021/11/22 04:50:04;;;;;;;36.97;18.07;;;4.60;99.90;;;;;;5057121;28;20447;-84
2021/11/22 04:52:30;;;;;;;43.33;15.80;;;4.60;99.90;;;;;;5056851;28;20461;-84
2021/11/22 04:54:55;;;;;;;22.67;14.00;;;4.60;99.90;;;;;;5056977;28;20406;-84
2021/11/22 04:57:21;;;;;;;36.53;12.87;;;4.60;99.90;;;;;;5056905;28;20214;-84
2021/11/22 04:59:47;;;;;;;33.90;15.70;;;4.70;99.90;;;;;;5056827;28;20165;-84
2021/11/22 05:02:12;;;;;;;29.53;15.10;;;4.70;99.90;;;;;;5056987;28;20172;-84
2021/11/22 05:04:39;;;;;;;26.43;14.00;;;4.70;99.90;;;;;;5056993;28;20219;-84
2021/11/22 05:07:05;;;;;;;21.30;13.60;;;4.70;99.90;;;;;;5056983;28;20760;-84
2021/11/22 05:09:31;;;;;;;39.83;16.53;;;4.70;99.90;;;;;;5056658;28;20424;-84
2021/11/22 05:11:57;;;;;;;24.33;13.00;;;4.70;99.90;;;;;;5057012;28;20497;-83
2021/11/22 05:14:24;;;;;;;25.53;14.60;;;4.70;99.90;;;;;;5056805;28;20311;-84
2021/11/22 05:16:50;;;;;;;37.70;16.87;;;4.70;99.90;;;;;;5056897;28;20464;-84
2021/11/22 05:19:16;;;;;;;28.93;16.37;;;4.60;99.90;;;;;;5056436;28;20436;-84
2021/11/22 05:21:42;;;;;;;32.07;17.63;;;4.60;99.90;;;;;;5056853;28;20405;-84
2021/11/22 05:24:09;;;;;;;32.70;15.70;;;4.70;99.90;;;;;;5056686;28;20831;-84
2021/11/22 05:26:35;;;;;;;31.83;15.20;;;4.70;99.90;;;;;;5056904;28;20203;-84
2021/11/22 05:29:03;;;;;;;26.47;14.57;;;4.70;99.90;;;;;;5056267;28;20460;-83
2021/11/22 05:31:29;;;;;;;20.23;14.27;;;4.70;99.90;;;;;;5056798;28;20471;-84
2021/11/22 05:33:55;;;;;;;20.30;13.97;;;4.70;99.90;;;;;;5056642;28;20463;-84
2021/11/22 05:36:21;;;;;;;18.40;12.60;;;4.70;99.90;;;;;;5057070;28;20523;-84
2021/11/22 05:38:47;;;;;;;13.67;10.87;;;4.80;99.90;;;;;;5054099;28;20168;-84
2021/11/22 05:41:14;;;;;;;13.67;10.50;;;4.80;99.90;;;;;;5053635;28;20164;-84
2021/11/22 05:43:40;;;;;;;12.80;11.37;;;4.80;99.90;;;;;;5053252;28;20488;-84
2021/11/22 05:46:07;;;;;;;14.87;11.93;;;4.80;99.90;;;;;;5053423;28;20418;-84
2021/11/22 05:48:33;;;;;;;28.27;22.70;;;4.80;99.90;;;;;;5053088;28;20414;-84
2021/11/22 05:51:01;;;;;;;18.43;14.23;;;4.80;99.90;;;;;;5053320;28;20417;-84
2021/11/22 05:53:32;;;;;;;12.57;10.73;;;4.90;99.90;;;;;;5053211;28;20205;-83
2021/11/22 05:55:59;;;;;;;14.90;11.27;;;4.90;99.90;;;;;;5053363;28;20813;-83
2021/11/22 05:58:24;;;;;;;18.17;14.53;;;4.90;99.90;;;;;;5052872;28;20406;-83
2021/11/22 06:00:50;;;;;;;17.63;13.30;;;4.80;99.90;;;;;;5053120;28;20475;-83
2021/11/22 06:03:16;;;;;;;13.77;11.57;;;4.90;99.90;;;;;;5053040;28;20195;-84
2021/11/22 06:05:42;;;;;;;18.73;12.07;;;4.90;99.90;;;;;;5053114;28;20175;-84
2021/11/22 06:08:07;;;;;;;14.90;12.10;;;4.90;99.90;;;;;;5052651;28;20176;-83
2021/11/22 06:10:34;;;;;;;16.33;12.17;;;4.90;99.90;;;;;;5052923;28;20414;-84
2021/11/22 06:12:59;;;;;;;16.73;12.27;;;4.90;99.90;;;;;;5052697;28;20215;-84
2021/11/22 06:15:26;;;;;;;23.40;14.53;;;4.90;99.90;;;;;;5052982;28;20517;-83
2021/11/22 06:17:52;;;;;;;18.50;14.53;;;4.80;99.90;;;;;;5052518;28;20180;-84
2021/11/22 06:20:18;;;;;;;20.33;12.37;;;4.80;99.90;;;;;;5052908;28;20560;-84
2021/11/22 06:22:44;;;;;;;16.97;11.40;;;4.90;99.90;;;;;;5052670;28;20438;-83
2021/11/22 06:25:10;;;;;;;13.90;10.83;;;4.80;99.90;;;;;;5052599;28;20433;-84
2021/11/22 06:27:36;;;;;;;18.80;13.50;;;4.90;99.90;;;;;;5052216;28;20414;-84
2021/11/22 06:30:05;;;;;;;20.23;13.57;;;4.90;99.90;;;;;;5052573;28;20914;-84
2021/11/22 06:32:31;;;;;;;15.47;12.17;;;4.90;99.90;;;;;;5042365;28;20423;-83
2021/11/22 06:34:57;;;;;;;20.13;12.50;;;4.90;99.90;;;;;;5037518;28;21051;-85
2021/11/22 06:37:30;;;;;;;15.90;11.77;;;4.90;99.90;;;;;;5052050;28;20297;-84
2021/11/22 06:39:56;;;;;;;21.83;14.00;;;4.90;99.90;;;;;;5052314;28;20497;-83
2021/11/22 06:42:22;;;;;;;12.67;10.90;;;4.90;99.90;;;;;;5036486;28;20847;-80
2021/11/22 06:44:49;;;;;;;13.07;9.83;;;4.90;99.90;;;;;;5035042;28;20863;-81
2021/11/22 06:47:15;;;;;;;15.20;10.90;;;4.90;99.90;;;;;;5032168;28;20415;-80
2021/11/22 06:49:41;;;;;;;16.13;9.80;;;4.90;99.90;;;;;;5031893;28;20943;-81
2021/11/22 06:52:07;;;;;;;13.30;9.83;;;4.90;99.90;;;;;;5032037;28;20438;-80
2021/11/22 06:54:33;;;;;;;13.53;10.03;;;4.90;99.90;;;;;;5031820;28;20291;-81
2021/11/22 06:57:00;;;;;;;10.63;9.50;;;5.00;99.90;;;;;;5032039;28;20407;-81
2021/11/22 06:59:29;;;;;;;13.37;9.73;;;4.90;99.90;;;;;;5031690;28;20404;-81
2021/11/22 07:01:56;;;;;;;12.40;10.10;;;5.00;99.90;;;;;;5032099;28;20442;-81
2021/11/22 07:04:22;;;;;;;11.63;8.53;;;4.90;99.90;;;;;;5031885;28;20427;-81
2021/11/22 07:06:47;;;;;;;11.53;9.30;;;5.00;99.90;;;;;;5031793;28;20464;-81
2021/11/22 07:09:13;;;;;;;14.50;8.57;;;5.00;99.90;;;;;;5031384;28;20183;-81
2021/11/22 07:11:39;;;;;;;11.80;9.43;;;4.90;99.90;;;;;;5031884;28;20216;-83
2021/11/22 07:14:05;;;;;;;11.97;8.87;;;4.90;99.90;;;;;;5031647;28;20205;-83
2021/11/22 07:16:32;;;;;;;11.10;8.50;;;4.90;99.90;;;;;;5031823;28;20787;-84
2021/11/22 07:18:58;;;;;;;15.37;9.47;;;5.00;99.90;;;;;;5031295;28;20477;-83
2021/11/22 07:21:24;;;;;;;17.00;12.67;;;5.00;99.90;;;;;;5031574;28;20415;-84
2021/11/22 07:23:51;;;;;;;12.50;11.40;;;5.10;99.90;;;;;;5031473;28;20928;-84
2021/11/22 07:26:17;;;;;;;14.70;10.27;;;5.00;99.90;;;;;;5031547;28;20408;-84
2021/11/22 07:28:43;;;;;;;10.57;8.70;;;5.00;99.90;;;;;;5031102;28;20415;-84
2021/11/22 07:31:08;;;;;;;14.23;11.90;;;5.00;99.90;;;;;;5031746;28;20412;-84
2021/11/22 07:33:34;;;;;;;14.03;10.50;;;5.00;99.90;;;;;;5031338;28;20211;-84
2021/11/22 07:36:00;;;;;;;11.50;9.00;;;5.00;99.90;;;;;;5031323;28;20199;-84
2021/11/22 07:38:26;;;;;;;14.50;11.00;;;5.00;99.90;;;;;;5030996;28;20251;-84
2021/11/22 07:40:52;;;;;;;18.43;10.33;;;5.00;99.90;;;;;;5031425;28;20187;-83
2021/11/22 07:43:18;;;;;;;17.17;13.07;;;5.00;99.90;;;;;;5031122;28;20439;-84
2021/11/22 07:45:45;;;;;;;15.10;11.00;;;5.00;99.90;;;;;;5031257;28;20415;-84
2021/11/22 07:48:14;;;;;;;15.43;11.87;;;5.10;99.90;;;;;;5030915;28;20787;-83
2021/11/22 07:50:40;;;;;;;17.63;13.03;;;5.00;99.90;;;;;;5031074;28;20915;-84
2021/11/22 07:53:06;;;;;;;12.80;10.73;;;5.00;99.90;;;;;;5031084;28;20467;-83
2021/11/22 07:55:31;;;;;;;12.10;9.73;;;4.90;99.90;;;;;;5031224;28;20403;-83
2021/11/22 07:57:57;;;;;;;13.50;10.30;;;5.00;99.90;;;;;;5030852;28;20175;-83
2021/11/22 08:00:25;;;;;;;13.40;10.40;;;4.90;99.90;;;;;;5031145;28;20299;-84
2021/11/22 08:02:52;;;;;;;14.27;11.60;;;5.00;99.90;;;;;;5031564;28;20466;-85
2021/11/22 08:05:18;;;;;;;15.63;12.00;;;5.00;99.90;;;;;;5030682;28;20469;-84
2021/11/22 08:07:44;;;;;;;13.53;10.83;;;5.00;99.90;;;;;;5030629;28;20415;-84
2021/11/22 08:10:18;;;;;;;12.10;10.07;;;4.90;99.90;;;;;;5030976;28;20766;-85
2021/11/22 08:12:43;;;;;;;16.43;11.47;;;4.90;99.90;;;;;;5030713;28;20291;-83
2021/11/22 08:15:10;;;;;;;17.23;12.40;;;5.00;99.90;;;;;;5030831;28;20487;-82
2021/11/22 08:17:42;;;;;;;13.07;11.20;;;5.00;99.90;;;;;;5030667;28;20267;-82
2021/11/22 08:20:10;;;;;;;17.77;12.17;;;5.00;99.90;;;;;;5030826;28;20430;-82
2021/11/22 08:22:36;;;;;;;16.83;12.10;;;5.00;99.90;;;;;;5030799;28;20454;-82
2021/11/22 08:25:03;;;;;;;18.73;13.83;;;5.10;99.90;;;;;;5030773;28;20494;-82
2021/11/22 08:27:30;;;;;;;11.23;10.10;;;5.00;99.90;;;;;;5030358;28;20502;-82
2021/11/22 08:29:59;;;;;;;12.20;10.43;;;5.00;99.90;;;;;;5030753;28;20446;-81
2021/11/22 08:32:26;;;;;;;11.50;10.30;;;5.00;99.90;;;;;;5030440;28;20415;-83
2021/11/22 08:34:51;;;;;;;15.03;12.70;;;5.00;99.90;;;;;;5030939;28;20495;-82
2021/11/22 08:37:17;;;;;;;12.30;9.70;;;4.90;99.90;;;;;;5030852;28;20843;-83
2021/11/22 08:39:43;;;;;;;10.70;9.30;;;4.90;99.90;;;;;;5030611;28;20172;-88
2021/11/22 08:42:09;;;;;;;11.90;10.23;;;5.00;99.90;;;;;;5030763;28;20447;-87
2021/11/22 08:44:36;;;;;;;14.27;11.27;;;5.00;99.90;;;;;;5030520;28;20490;-86
2021/11/22 08:47:02;;;;;;;15.33;11.53;;;4.90;99.90;;;;;;5030436;28;20403;-86
2021/11/22 08:49:29;;;;;;;14.40;11.47;;;4.90;99.90;;;;;;5030313;28;20752;-85
2021/11/22 08:51:55;;;;;;;13.47;10.90;;;4.90;99.90;;;;;;5030476;28;20438;-85
2021/11/22 08:54:21;;;;;;;15.00;9.93;;;4.90;99.90;;;;;;5030165;28;20460;-86
2021/11/22 08:56:47;;;;;;;15.30;12.80;;;4.90;99.90;;;;;;5030411;28;20412;-86
2021/11/22 08:59:14;;;;;;;17.33;12.77;;;4.90;99.90;;;;;;5030215;28;20407;-86
2021/11/22 09:01:40;;;;;;;15.17;10.90;;;4.90;99.90;;;;;;5030126;28;20824;-85
2021/11/22 09:04:06;;;;;;;13.60;10.90;;;4.90;99.90;;;;;;5031608;28;20514;-85
2021/11/22 09:06:35;;;;;;;17.20;13.47;;;4.90;99.90;;;;;;5030616;28;20516;-86
2021/11/22 09:09:03;;;;;;;14.30;10.90;;;5.00;99.90;;;;;;5029873;28;20415;-84
2021/11/22 09:11:29;;;;;;;17.30;13.90;;;4.90;99.90;;;;;;5030264;28;20489;-85
2021/11/22 09:13:55;;;;;;;11.90;10.50;;;4.90;99.90;;;;;;5030694;28;20506;-84
2021/11/22 09:16:27;;;;;;;13.13;10.20;;;4.90;99.90;;;;;;5033878;28;20680;-84
2021/11/22 09:18:59;;;;;;;11.80;10.60;;;5.00;99.90;;;;;;5033565;28;20204;-84
2021/11/22 09:21:27;;;;;;;10.03;8.90;;;5.00;99.90;;;;;;5017688;28;20443;-84
2021/11/22 09:23:53;;;;;;;13.30;10.40;;;5.00;99.90;;;;;;5033773;28;20438;-85
2021/11/22 09:26:19;;;;;;;12.20;10.17;;;4.90;99.90;;;;;;5033816;28;20425;-84
2021/11/22 09:28:46;;;;;;;14.57;10.80;;;4.90;99.90;;;;;;5034617;28;20792;-85
2021/11/22 09:31:13;;;;;;;13.10;11.70;;;4.90;99.90;;;;;;5033761;28;20785;-84
2021/11/22 09:33:40;;;;;;;11.20;10.00;;;4.90;99.90;;;;;;5033458;28;20517;-85
2021/11/22 09:36:06;;;;;;;15.80;11.27;;;5.00;99.90;;;;;;5033652;28;20407;-84
2021/11/22 09:38:32;;;;;;;12.57;10.00;;;5.00;99.90;;;;;;5033375;28;20411;-84
2021/11/22 09:40:58;;;;;;;13.03;11.23;;;5.00;99.90;;;;;;5033568;28;20991;-85
2021/11/22 09:43:24;;;;;;;12.17;10.30;;;5.00;99.90;;;;;;5033422;28;20445;-84
2021/11/22 09:45:51;;;;;;;13.27;11.40;;;5.10;99.90;;;;;;5033377;28;20415;-84
2021/11/22 09:48:17;;;;;;;13.87;11.57;;;5.10;99.90;;;;;;5033064;28;20423;-84
2021/11/22 09:50:43;;;;;;;13.40;8.80;;;5.10;99.90;;;;;;5033372;28;20791;-84
2021/11/22 09:53:09;;;;;;;11.50;10.30;;;5.20;99.90;;;;;;5033095;28;20565;-84
2021/11/22 09:55:36;;;;;;;12.27;10.67;;;5.30;99.90;;;;;;5033219;28;20822;-84
2021/11/22 09:58:03;;;;;;;12.77;10.83;;;5.30;99.90;;;;;;5032920;28;20451;-84
2021/11/22 10:00:42;;;;;;;10.97;9.60;;;5.40;99.90;;;;;;5033161;28;20537;-84
2021/11/22 10:03:13;;;;;;;13.83;10.20;;;5.40;99.90;;;;;;5033147;28;20443;-84
2021/11/22 10:05:42;;;;;;;15.07;12.37;;;5.40;99.90;;;;;;5033180;28;20403;-84
2021/11/22 10:08:10;;;;;;;14.20;11.40;;;5.40;99.90;;;;;;5032613;28;20415;-84
2021/11/22 10:10:44;;;;;;;12.00;10.00;;;5.50;99.90;;;;;;5032979;28;20764;-84
2021/11/22 10:13:19;;;;;;;10.00;9.00;;;5.50;99.90;;;;;;5032784;28;21017;-84
2021/11/22 10:15:45;;;;;;;13.20;9.97;;;5.50;99.90;;;;;;5032829;28;20407;-85
2021/11/22 10:18:23;;;;;;;11.40;9.50;;;5.50;99.90;;;;;;5032464;28;20436;-85
2021/11/22 10:20:51;;;;;;;17.93;10.40;;;5.50;99.90;;;;;;5032726;28;20908;-85
2021/11/22 10:23:22;;;;;;;7.83;7.13;;;5.50;99.90;;;;;;5032713;28;20839;-85
2021/11/22 10:25:48;;;;;;;9.40;8.50;;;5.50;99.90;;;;;;5032220;28;20415;-83
2021/11/22 10:28:20;;;;;;;9.47;8.23;;;5.60;99.90;;;;;;5032315;28;20422;-82
2021/11/22 10:30:53;;;;;;;8.53;7.77;;;5.70;99.90;;;;;;5032564;28;20272;-83
2021/11/22 10:33:21;;;;;;;13.93;8.80;;;5.60;99.90;;;;;;5032232;28;20830;-84
2021/11/22 10:35:48;;;;;;;11.10;8.57;;;5.60;99.90;;;;;;5032504;28;20407;-84
2021/11/22 10:38:21;;;;;;;9.60;8.37;;;5.70;99.90;;;;;;5032261;28;20423;-86
2021/11/22 10:41:06;;;;;;;9.03;8.13;;;5.80;99.90;;;;;;5032516;28;20919;-84
2021/11/22 10:43:36;;;;;;;10.53;8.60;;;5.90;99.90;;;;;;5032226;28;20447;-84
2021/11/22 10:46:07;;;;;;;10.40;9.30;;;6.00;99.90;;;;;;5032267;28;20834;-82
2021/11/22 10:48:33;;;;;;;10.77;9.47;;;6.00;99.90;;;;;;5031952;28;20419;-82
2021/11/22 10:51:16;;;;;;;11.10;9.90;;;6.00;99.90;;;;;;5032120;28;20788;-83
2021/11/22 10:53:53;;;;;;;12.33;9.67;;;6.00;99.90;;;;;;5031889;28;20510;-82
2021/11/22 10:56:25;;;;;;;11.60;8.80;;;6.00;99.90;;;;;;5031893;28;20488;-83
2021/11/22 10:58:51;;;;;;;11.17;10.07;;;5.80;99.90;;;;;;5032876;28;20738;-83
2021/11/22 11:01:17;;;;;;;11.20;10.00;;;5.80;99.90;;;;;;5032036;28;20407;-82
2021/11/22 11:03:55;;;;;;;12.17;9.77;;;5.80;99.90;;;;;;5031708;28;20194;-82
2021/11/22 11:06:32;;;;;;;13.10;11.00;;;5.80;99.90;;;;;;5031943;28;20424;-83
2021/11/22 11:09:00;;;;;;;13.13;10.60;;;5.90;99.90;;;;;;5031621;28;20409;-82
2021/11/22 11:11:26;;;;;;;17.83;12.37;;;5.80;99.90;;;;;;5031957;28;20419;-82
2021/11/22 11:13:53;;;;;;;13.87;12.33;;;5.70;99.90;;;;;;5031630;28;20460;-82
2021/11/22 11:16:19;;;;;;;10.80;9.60;;;5.70;99.90;;;;;;5031648;28;20807;-82
2021/11/22 11:18:58;;;;;;;11.20;10.00;;;5.70;99.90;;;;;;5031390;28;20744;-82
2021/11/22 11:21:37;;;;;;;11.40;8.67;;;5.70;99.90;;;;;;5031881;28;20884;-82
2021/11/22 11:24:05;;;;;;;12.67;10.47;;;5.60;99.90;;;;;;5032156;28;20443;-83
2021/11/22 11:26:31;;;;;;;9.67;8.73;;;5.60;99.90;;;;;;5032456;28;20520;-82
2021/11/22 11:28:58;;;;;;;9.73;8.63;;;5.70;99.90;;;;;;5032395;28;20802;-82
2021/11/22 11:31:24;;;;;;;10.10;8.83;;;5.70;99.90;;;;;;5032867;28;20485;-82
2021/11/22 11:33:51;;;;;;;9.97;8.97;;;5.70;99.90;;;;;;5032949;28;20553;-83
2021/11/22 11:36:27;;;;;;;12.57;9.70;;;5.70;99.90;;;;;;5039033;28;20819;-83
2021/11/22 11:39:17;;;;;;;13.77;10.30;;;5.70;99.90;;;;;;5051486;28;20506;-83
2021/11/22 11:41:56;;;;;;;11.20;9.90;;;5.80;99.90;;;;;;5051513;28;20411;-83
2021/11/22 11:44:41;;;;;;;16.87;12.70;;;5.80;99.90;;;;;;5051037;28;20485;-83
2021/11/22 11:47:21;;;;;;;12.60;11.40;;;6.00;99.90;;;;;;5051389;28;20965;-83
2021/11/22 11:49:47;;;;;;;8.10;7.30;;;6.10;99.90;;;;;;5050884;28;20410;-82
2021/11/22 11:52:27;;;;;;;12.27;11.10;;;6.10;99.90;;;;;;5050291;28;20816;-85
2021/11/22 11:54:56;;;;;;;14.10;12.70;;;6.10;99.90;;;;;;5050709;28;20176;-84
2021/11/22 11:57:24;;;;;;;12.83;11.50;;;6.10;99.90;;;;;;5050614;28;20922;-83
2021/11/22 11:59:51;;;;;;;11.37;10.27;;;6.10;99.90;;;;;;5050601;28;20405;-84
2021/11/22 12:02:29;;;;;;;12.57;10.57;;;6.10;99.90;;;;;;5050810;28;20412;-86
2021/11/22 12:04:59;;;;;;;11.53;10.43;;;6.00;99.90;;;;;;5050334;28;20407;-85
2021/11/22 12:07:47;;;;;;;10.40;9.43;;;5.90;99.90;;;;;;5048936;28;20403;-84
2021/11/22 12:10:26;;;;;;;11.43;10.33;;;6.00;99.90;;;;;;5049213;28;20834;-85
2021/11/22 12:12:57;;;;;;;11.63;10.43;;;6.00;99.90;;;;;;5050702;28;20458;-84
2021/11/22 12:15:27;;;;;;;10.40;9.30;;;6.10;99.90;;;;;;5050565;28;20421;-85
2021/11/22 12:17:58;;;;;;;13.23;10.80;;;6.20;99.90;;;;;;5050343;28;20443;-83
2021/11/22 12:20:24;;;;;;;14.00;11.83;;;6.30;99.90;;;;;;5050649;28;20410;-86
2021/11/22 12:22:59;;;;;;;13.10;11.37;;;6.30;99.90;;;;;;5050524;28;20436;-84
2021/11/22 12:25:41;;;;;;;11.17;9.97;;;6.30;99.90;;;;;;5050732;28;20949;-84
2021/11/22 12:28:19;;;;;;;10.57;9.47;;;6.30;99.90;;;;;;5050306;28;20418;-85
2021/11/22 12:30:54;;;;;;;11.77;9.97;;;6.30;99.90;;;;;;5050555;28;20451;-84
2021/11/22 12:33:20;;;;;;;8.90;7.60;;;6.60;99.90;;;;;;5050461;28;20849;-83
2021/11/22 12:35:48;;;;;;;11.47;9.47;;;6.70;99.90;;;;;;5050588;28;20418;-84
2021/11/22 12:38:21;;;;;;;9.90;8.90;;;7.10;99.90;;;;;;5049986;28;20171;-83
2021/11/22 12:40:49;;;;;;;11.83;9.17;;;7.40;99.90;;;;;;5050569;28;20413;-82
2021/11/22 12:43:17;;;;;;;11.03;9.20;;;7.40;99.90;;;;;;5050368;28;20499;-82